Shine On — SHINEO — position and weather

sailwx.info

Track history (hours):
 
Tides and Currents Weather Stations Pressure Air Temp Water Temp Dewpoint Dewpoint Depression Visibility Wind Speed Wind Dir Waves Ship Positions

Shine On

Last reported at 2018-Jan-21 22:15 UTC. Time now 2018-Feb-23 08:36 UTC.
Position N 26°00' W 080°08'.
Warning: this ship's position is 32 days out of date.

Type: Pleasure craft. MMSI: 338119278.

Date/timePositionNaut miles runAvg speedWind from/ knotsBaromVisibWave heightAir tempDewpointWater temp
2018-Jan-21 22:15N 26°00' W 080°08'3 6.9
2018-Jan-21 21:53N 25°57' W 080°07'1 2.7
2018-Jan-21 21:25N 25°56' W 080°08'3 5.7
2018-Jan-21 20:53N 25°53' W 080°08'1 3.4
2018-Jan-21 20:29N 25°52' W 080°09'2 4.8
2018-Jan-21 20:00N 25°54' W 080°08'3 2.6
2018-Jan-21 19:01N 25°56' W 080°08'0 0.0
2018-Jan-21 18:37N 25°56' W 080°08'0 0.0
2018-Jan-21 17:31N 25°56' W 080°08'0 0.0
2018-Jan-21 16:10N 25°56' W 080°08'0 0.0
2018-Jan-21 15:55N 25°56' W 080°08'0 0.0
2018-Jan-21 15:22N 25°56' W 080°08'0 0.0
2018-Jan-21 14:55N 25°56' W 080°08'0 0.0
2018-Jan-21 14:25N 25°56' W 080°08'0 0.0
2018-Jan-21 13:55N 25°56' W 080°08'0 0.0
2018-Jan-21 13:13N 25°56' W 080°08'0 0.0
2018-Jan-21 12:55N 25°56' W 080°08'0 0.0
2018-Jan-21 12:28N 25°56' W 080°08'0 0.0
2018-Jan-21 08:16N 25°56' W 080°08'0 0.0
2018-Jan-21 06:49N 25°56' W 080°08'0 0.0
2018-Jan-21 06:01N 25°56' W 080°08'0 0.0
2018-Jan-21 05:49N 25°56' W 080°08'0 0.0
2018-Jan-21 05:22N 25°56' W 080°08'0 0.0
2018-Jan-21 04:52N 25°56' W 080°08'0 0.0
2018-Jan-21 04:22N 25°56' W 080°08'0 0.0
2018-Jan-21 03:52N 25°56' W 080°08'0 0.0
2018-Jan-21 03:22N 25°56' W 080°08'0 0.0
2018-Jan-21 02:49N 25°56' W 080°08'0 0.0
2018-Jan-21 02:25N 25°56' W 080°08'0 0.0
2018-Jan-21 01:55N 25°56' W 080°08'0 0.0
2018-Jan-21 01:19N 25°56' W 080°08'0 0.0
2018-Jan-21 00:40N 25°56' W 080°08'0 0.0
2018-Jan-21 00:22N 25°56' W 080°08'0 0.0
2018-Jan-20 23:55N 25°56' W 080°08'0 0.0
2018-Jan-20 23:13N 25°56' W 080°08'0 0.0
2018-Jan-20 22:52N 25°56' W 080°08'0 0.0
2018-Jan-20 22:28N 25°56' W 080°08'0 0.0
2018-Jan-20 21:43N 25°56' W 080°08'0 0.0
2018-Jan-20 21:13N 25°56' W 080°08'0 0.0
2018-Jan-20 20:55N 25°56' W 080°08'0 0.0
2018-Jan-20 20:28N 25°56' W 080°08'0 0.0
2018-Jan-20 19:55N 25°56' W 080°08'0 0.0
2018-Jan-20 19:25N 25°56' W 080°08'0 0.0
2018-Jan-20 18:31N 25°56' W 080°08'0 0.0
2018-Jan-20 18:02N 25°56' W 080°08'0 0.6
2018-Jan-20 17:44N 25°56' W 080°08'1 3.4
2018-Jan-20 17:30N 25°56' W 080°08'2 4.8
2018-Jan-20 16:59N 25°54' W 080°10'  
Track history (hours):
 
Tides and Currents Weather Stations Pressure Air Temp Water Temp Dewpoint Dewpoint Depression Visibility Wind Speed Wind Dir Waves Ship Positions

Shine On

Last reported at 2018-Jan-21 22:15 UTC. Time now 2018-Feb-23 08:36 UTC.
Position N 26°00' W 080°08'.
Warning: this ship's position is 32 days out of date.

Type: Pleasure craft. MMSI: 338119278.

Date/timePositionNaut miles runAvg speedWind from/ knotsBaromVisibWave heightAir tempDewpointWater temp
2018-Jan-21 22:15N 26°00' W 080°08'3 6.9
2018-Jan-21 21:53N 25°57' W 080°07'1 2.7
2018-Jan-21 21:25N 25°56' W 080°08'3 5.7
2018-Jan-21 20:53N 25°53' W 080°08'1 3.4
2018-Jan-21 20:29N 25°52' W 080°09'2 4.8
2018-Jan-21 20:00N 25°54' W 080°08'3 2.6
2018-Jan-21 19:01N 25°56' W 080°08'0 0.0
2018-Jan-21 18:37N 25°56' W 080°08'0 0.0
2018-Jan-21 17:31N 25°56' W 080°08'0 0.0
2018-Jan-21 16:10N 25°56' W 080°08'0 0.0
2018-Jan-21 15:55N 25°56' W 080°08'0 0.0
2018-Jan-21 15:22N 25°56' W 080°08'0 0.0
2018-Jan-21 14:55N 25°56' W 080°08'0 0.0
2018-Jan-21 14:25N 25°56' W 080°08'0 0.0
2018-Jan-21 13:55N 25°56' W 080°08'0 0.0
2018-Jan-21 13:13N 25°56' W 080°08'0 0.0
2018-Jan-21 12:55N 25°56' W 080°08'0 0.0
2018-Jan-21 12:28N 25°56' W 080°08'0 0.0
2018-Jan-21 08:16N 25°56' W 080°08'0 0.0
2018-Jan-21 06:49N 25°56' W 080°08'0 0.0
2018-Jan-21 06:01N 25°56' W 080°08'0 0.0
2018-Jan-21 05:49N 25°56' W 080°08'0 0.0
2018-Jan-21 05:22N 25°56' W 080°08'0 0.0
2018-Jan-21 04:52N 25°56' W 080°08'0 0.0
2018-Jan-21 04:22N 25°56' W 080°08'0 0.0
2018-Jan-21 03:52N 25°56' W 080°08'0 0.0
2018-Jan-21 03:22N 25°56' W 080°08'0 0.0
2018-Jan-21 02:49N 25°56' W 080°08'0 0.0
2018-Jan-21 02:25N 25°56' W 080°08'0 0.0
2018-Jan-21 01:55N 25°56' W 080°08'0 0.0
2018-Jan-21 01:19N 25°56' W 080°08'0 0.0
2018-Jan-21 00:40N 25°56' W 080°08'0 0.0
2018-Jan-21 00:22N 25°56' W 080°08'0 0.0
2018-Jan-20 23:55N 25°56' W 080°08'0 0.0
2018-Jan-20 23:13N 25°56' W 080°08'0 0.0
2018-Jan-20 22:52N 25°56' W 080°08'0 0.0
2018-Jan-20 22:28N 25°56' W 080°08'0 0.0
2018-Jan-20 21:43N 25°56' W 080°08'0 0.0
2018-Jan-20 21:13N 25°56' W 080°08'0 0.0
2018-Jan-20 20:55N 25°56' W 080°08'0 0.0
2018-Jan-20 20:28N 25°56' W 080°08'0 0.0
2018-Jan-20 19:55N 25°56' W 080°08'0 0.0
2018-Jan-20 19:25N 25°56' W 080°08'0 0.0
2018-Jan-20 18:31N 25°56' W 080°08'0 0.0
2018-Jan-20 18:02N 25°56' W 080°08'0 0.6
2018-Jan-20 17:44N 25°56' W 080°08'1 3.4
2018-Jan-20 17:30N 25°56' W 080°08'2 4.8
2018-Jan-20 16:59N 25°54' W 080°10'  

Dump ship's entire track history